sensor_id;sensor_type;location;lat;lon;timestamp;P1;durP1;ratioP1;P2;durP2;ratioP2
43680;SDS011;29281;50.356;30.894;2022-08-30T00:01:01;14.34;;;11.02;;
43680;SDS011;29281;50.356;30.894;2022-08-30T00:02:06;14.41;;;11.56;;
43680;SDS011;29281;50.356;30.894;2022-08-30T00:03:14;16.42;;;10.78;;
43680;SDS011;29281;50.356;30.894;2022-08-30T00:04:19;13.85;;;11.39;;
43680;SDS011;29281;50.356;30.894;2022-08-30T00:05:23;15.04;;;10.92;;
43680;SDS011;29281;50.356;30.894;2022-08-30T00:06:32;17.32;;;11.31;;
43680;SDS011;29281;50.356;30.894;2022-08-30T00:07:35;14.76;;;11.26;;
43680;SDS011;29281;50.356;30.894;2022-08-30T00:08:42;15.40;;;11.62;;
43680;SDS011;29281;50.356;30.894;2022-08-30T00:09:47;13.67;;;10.82;;
43680;SDS011;29281;50.356;30.894;2022-08-30T00:10:51;13.52;;;11.12;;
43680;SDS011;29281;50.356;30.894;2022-08-30T00:11:54;15.68;;;11.78;;
43680;SDS011;29281;50.356;30.894;2022-08-30T00:12:59;12.20;;;10.88;;
43680;SDS011;29281;50.356;30.894;2022-08-30T00:14:07;15.04;;;11.21;;
43680;SDS011;29281;50.356;30.894;2022-08-30T00:15:11;14.01;;;11.25;;
43680;SDS011;29281;50.356;30.894;2022-08-30T00:16:17;15.35;;;11.46;;
43680;SDS011;29281;50.356;30.894;2022-08-30T00:17:25;14.14;;;11.39;;
43680;SDS011;29281;50.356;30.894;2022-08-30T00:18:29;15.10;;;11.90;;
43680;SDS011;29281;50.356;30.894;2022-08-30T00:19:32;14.53;;;11.24;;
43680;SDS011;29281;50.356;30.894;2022-08-30T00:20:41;13.84;;;10.31;;
43680;SDS011;29281;50.356;30.894;2022-08-30T00:21:46;14.59;;;11.05;;
43680;SDS011;29281;50.356;30.894;2022-08-30T00:22:49;14.55;;;11.98;;
43680;SDS011;29281;50.356;30.894;2022-08-30T00:23:54;15.63;;;11.48;;
43680;SDS011;29281;50.356;30.894;2022-08-30T00:24:59;16.09;;;11.72;;
43680;SDS011;29281;50.356;30.894;2022-08-30T00:26:03;14.49;;;11.97;;
43680;SDS011;29281;50.356;30.894;2022-08-30T00:27:11;14.39;;;11.67;;
43680;SDS011;29281;50.356;30.894;2022-08-30T00:28:17;14.72;;;11.31;;
43680;SDS011;29281;50.356;30.894;2022-08-30T00:29:21;14.07;;;11.06;;
43680;SDS011;29281;50.356;30.894;2022-08-30T00:30:24;14.45;;;11.64;;
43680;SDS011;29281;50.356;30.894;2022-08-30T00:31:28;15.86;;;11.31;;
43680;SDS011;29281;50.356;30.894;2022-08-30T00:32:35;14.84;;;11.18;;
43680;SDS011;29281;50.356;30.894;2022-08-30T00:33:38;15.50;;;11.87;;
43680;SDS011;29281;50.356;30.894;2022-08-30T00:34:45;14.24;;;10.57;;
43680;SDS011;29281;50.356;30.894;2022-08-30T00:35:47;12.88;;;11.19;;
43680;SDS011;29281;50.356;30.894;2022-08-30T00:36:53;13.72;;;11.27;;
43680;SDS011;29281;50.356;30.894;2022-08-30T00:37:58;17.62;;;11.84;;
43680;SDS011;29281;50.356;30.894;2022-08-30T00:39:05;13.56;;;11.90;;
43680;SDS011;29281;50.356;30.894;2022-08-30T00:40:11;15.82;;;12.27;;
43680;SDS011;29281;50.356;30.894;2022-08-30T00:41:17;14.26;;;11.09;;
43680;SDS011;29281;50.356;30.894;2022-08-30T00:42:22;14.71;;;11.52;;
43680;SDS011;29281;50.356;30.894;2022-08-30T00:43:26;14.12;;;11.35;;
43680;SDS011;29281;50.356;30.894;2022-08-30T00:44:31;13.46;;;11.67;;
43680;SDS011;29281;50.356;30.894;2022-08-30T00:45:35;14.32;;;12.11;;
43680;SDS011;29281;50.356;30.894;2022-08-30T00:46:40;15.22;;;12.16;;
43680;SDS011;29281;50.356;30.894;2022-08-30T00:47:43;14.18;;;11.35;;
43680;SDS011;29281;50.356;30.894;2022-08-30T00:48:51;15.27;;;11.34;;
43680;SDS011;29281;50.356;30.894;2022-08-30T00:49:55;17.84;;;12.10;;
43680;SDS011;29281;50.356;30.894;2022-08-30T00:51:01;16.22;;;11.86;;
43680;SDS011;29281;50.356;30.894;2022-08-30T00:52:06;14.14;;;11.40;;
43680;SDS011;29281;50.356;30.894;2022-08-30T00:53:12;12.85;;;11.35;;
43680;SDS011;29281;50.356;30.894;2022-08-30T00:54:21;14.65;;;10.77;;
43680;SDS011;29281;50.356;30.894;2022-08-30T00:55:30;16.11;;;11.83;;
43680;SDS011;29281;50.356;30.894;2022-08-30T00:56:38;16.63;;;11.16;;
43680;SDS011;29281;50.356;30.894;2022-08-30T00:57:43;13.54;;;11.55;;
43680;SDS011;29281;50.356;30.894;2022-08-30T00:58:49;14.81;;;11.51;;
43680;SDS011;29281;50.356;30.894;2022-08-30T00:59:59;14.03;;;10.97;;
43680;SDS011;29281;50.356;30.894;2022-08-30T01:01:04;15.58;;;10.94;;
43680;SDS011;29281;50.356;30.894;2022-08-30T01:02:09;15.13;;;11.36;;
43680;SDS011;29281;50.356;30.894;2022-08-30T01:03:14;17.09;;;11.39;;
43680;SDS011;29281;50.356;30.894;2022-08-30T01:04:18;15.20;;;11.84;;
43680;SDS011;29281;50.356;30.894;2022-08-30T01:05:24;12.98;;;11.43;;
43680;SDS011;29281;50.356;30.894;2022-08-30T01:06:29;16.55;;;11.88;;
43680;SDS011;29281;50.356;30.894;2022-08-30T01:07:34;13.41;;;11.74;;
43680;SDS011;29281;50.356;30.894;2022-08-30T01:08:39;14.27;;;11.76;;
43680;SDS011;29281;50.356;30.894;2022-08-30T01:09:43;17.18;;;11.74;;
43680;SDS011;29281;50.356;30.894;2022-08-30T01:10:47;16.24;;;11.72;;
43680;SDS011;29281;50.356;30.894;2022-08-30T01:11:51;16.84;;;11.91;;
43680;SDS011;29281;50.356;30.894;2022-08-30T01:12:56;14.00;;;11.96;;
43680;SDS011;29281;50.356;30.894;2022-08-30T01:14:00;17.19;;;11.91;;
43680;SDS011;29281;50.356;30.894;2022-08-30T01:15:06;16.88;;;12.60;;
43680;SDS011;29281;50.356;30.894;2022-08-30T01:16:12;15.29;;;11.74;;
43680;SDS011;29281;50.356;30.894;2022-08-30T01:17:18;14.36;;;11.43;;
43680;SDS011;29281;50.356;30.894;2022-08-30T01:18:28;14.42;;;11.75;;
43680;SDS011;29281;50.356;30.894;2022-08-30T01:19:41;16.11;;;11.39;;
43680;SDS011;29281;50.356;30.894;2022-08-30T01:22:27;17.79;;;12.12;;
43680;SDS011;29281;50.356;30.894;2022-08-30T01:23:38;17.33;;;11.92;;
43680;SDS011;29281;50.356;30.894;2022-08-30T01:24:46;13.79;;;11.45;;
43680;SDS011;29281;50.356;30.894;2022-08-30T01:25:52;16.73;;;11.97;;
43680;SDS011;29281;50.356;30.894;2022-08-30T01:26:57;15.76;;;11.85;;
43680;SDS011;29281;50.356;30.894;2022-08-30T01:28:04;18.42;;;11.97;;
43680;SDS011;29281;50.356;30.894;2022-08-30T01:29:12;16.42;;;11.83;;
43680;SDS011;29281;50.356;30.894;2022-08-30T01:30:26;14.66;;;11.92;;
43680;SDS011;29281;50.356;30.894;2022-08-30T01:31:31;15.63;;;12.16;;
43680;SDS011;29281;50.356;30.894;2022-08-30T01:32:39;14.73;;;12.09;;
43680;SDS011;29281;50.356;30.894;2022-08-30T01:33:47;18.18;;;12.04;;
43680;SDS011;29281;50.356;30.894;2022-08-30T01:34:51;16.24;;;12.59;;
43680;SDS011;29281;50.356;30.894;2022-08-30T01:35:57;14.79;;;12.24;;
43680;SDS011;29281;50.356;30.894;2022-08-30T01:37:04;15.51;;;11.86;;
43680;SDS011;29281;50.356;30.894;2022-08-30T01:38:07;14.74;;;12.24;;
43680;SDS011;29281;50.356;30.894;2022-08-30T01:39:13;15.11;;;12.30;;
43680;SDS011;29281;50.356;30.894;2022-08-30T01:40:21;15.97;;;12.41;;
43680;SDS011;29281;50.356;30.894;2022-08-30T01:41:26;17.13;;;12.21;;
43680;SDS011;29281;50.356;30.894;2022-08-30T01:42:35;13.48;;;11.63;;
43680;SDS011;29281;50.356;30.894;2022-08-30T01:43:39;14.79;;;12.17;;
43680;SDS011;29281;50.356;30.894;2022-08-30T01:44:46;14.23;;;12.02;;
43680;SDS011;29281;50.356;30.894;2022-08-30T01:45:50;16.07;;;11.91;;
43680;SDS011;29281;50.356;30.894;2022-08-30T01:46:55;14.64;;;11.92;;
43680;SDS011;29281;50.356;30.894;2022-08-30T01:48:00;15.08;;;11.49;;
43680;SDS011;29281;50.356;30.894;2022-08-30T01:49:07;14.61;;;12.02;;
43680;SDS011;29281;50.356;30.894;2022-08-30T01:50:14;18.37;;;11.70;;
43680;SDS011;29281;50.356;30.894;2022-08-30T01:51:24;15.08;;;11.46;;
43680;SDS011;29281;50.356;30.894;2022-08-30T01:52:32;14.86;;;12.13;;
43680;SDS011;29281;50.356;30.894;2022-08-30T01:53:37;16.13;;;11.80;;
43680;SDS011;29281;50.356;30.894;2022-08-30T01:54:45;14.21;;;11.57;;
43680;SDS011;29281;50.356;30.894;2022-08-30T01:55:53;15.31;;;11.64;;
43680;SDS011;29281;50.356;30.894;2022-08-30T01:56:57;16.71;;;11.67;;
43680;SDS011;29281;50.356;30.894;2022-08-30T01:58:02;13.02;;;11.51;;
43680;SDS011;29281;50.356;30.894;2022-08-30T01:59:06;14.29;;;11.69;;
43680;SDS011;29281;50.356;30.894;2022-08-30T02:00:12;15.63;;;12.23;;
43680;SDS011;29281;50.356;30.894;2022-08-30T02:01:19;13.09;;;11.39;;
43680;SDS011;29281;50.356;30.894;2022-08-30T02:02:26;15.08;;;11.42;;
43680;SDS011;29281;50.356;30.894;2022-08-30T02:03:31;14.19;;;11.61;;
43680;SDS011;29281;50.356;30.894;2022-08-30T02:04:39;13.50;;;11.63;;
43680;SDS011;29281;50.356;30.894;2022-08-30T02:05:45;14.54;;;10.97;;
43680;SDS011;29281;50.356;30.894;2022-08-30T02:06:47;13.92;;;11.25;;
43680;SDS011;29281;50.356;30.894;2022-08-30T02:07:51;14.03;;;11.70;;
43680;SDS011;29281;50.356;30.894;2022-08-30T02:08:56;15.63;;;11.64;;
43680;SDS011;29281;50.356;30.894;2022-08-30T02:10:03;13.68;;;11.57;;
43680;SDS011;29281;50.356;30.894;2022-08-30T02:11:09;13.97;;;10.87;;
43680;SDS011;29281;50.356;30.894;2022-08-30T02:12:18;14.50;;;11.55;;
43680;SDS011;29281;50.356;30.894;2022-08-30T02:13:22;17.58;;;12.02;;
43680;SDS011;29281;50.356;30.894;2022-08-30T02:14:28;16.67;;;12.08;;
43680;SDS011;29281;50.356;30.894;2022-08-30T02:15:34;16.68;;;11.38;;
43680;SDS011;29281;50.356;30.894;2022-08-30T02:16:43;15.03;;;11.37;;
43680;SDS011;29281;50.356;30.894;2022-08-30T02:17:47;21.13;;;11.48;;
43680;SDS011;29281;50.356;30.894;2022-08-30T02:18:52;14.77;;;11.34;;
43680;SDS011;29281;50.356;30.894;2022-08-30T02:20:04;13.66;;;11.07;;
43680;SDS011;29281;50.356;30.894;2022-08-30T02:21:12;16.13;;;11.88;;
43680;SDS011;29281;50.356;30.894;2022-08-30T02:22:18;15.03;;;11.64;;
43680;SDS011;29281;50.356;30.894;2022-08-30T02:23:22;13.94;;;11.18;;
43680;SDS011;29281;50.356;30.894;2022-08-30T02:24:29;17.37;;;12.44;;
43680;SDS011;29281;50.356;30.894;2022-08-30T02:25:32;18.77;;;11.51;;
43680;SDS011;29281;50.356;30.894;2022-08-30T02:26:38;13.56;;;10.84;;
43680;SDS011;29281;50.356;30.894;2022-08-30T02:27:42;15.79;;;11.94;;
43680;SDS011;29281;50.356;30.894;2022-08-30T02:28:46;16.76;;;12.01;;
43680;SDS011;29281;50.356;30.894;2022-08-30T02:29:53;14.71;;;11.36;;
43680;SDS011;29281;50.356;30.894;2022-08-30T02:30:59;15.86;;;11.89;;
43680;SDS011;29281;50.356;30.894;2022-08-30T02:32:03;17.32;;;12.41;;
43680;SDS011;29281;50.356;30.894;2022-08-30T02:33:07;17.68;;;11.66;;
43680;SDS011;29281;50.356;30.894;2022-08-30T02:34:11;15.26;;;11.72;;
43680;SDS011;29281;50.356;30.894;2022-08-30T02:35:16;15.79;;;11.54;;
43680;SDS011;29281;50.356;30.894;2022-08-30T02:36:24;14.69;;;11.51;;
43680;SDS011;29281;50.356;30.894;2022-08-30T02:37:27;16.82;;;11.05;;
43680;SDS011;29281;50.356;30.894;2022-08-30T02:38:32;15.18;;;11.95;;
43680;SDS011;29281;50.356;30.894;2022-08-30T02:39:37;14.67;;;11.08;;
43680;SDS011;29281;50.356;30.894;2022-08-30T02:40:44;16.69;;;11.57;;
43680;SDS011;29281;50.356;30.894;2022-08-30T02:41:48;15.61;;;11.25;;
43680;SDS011;29281;50.356;30.894;2022-08-30T02:42:54;13.88;;;11.39;;
43680;SDS011;29281;50.356;30.894;2022-08-30T02:43:59;15.37;;;11.53;;
43680;SDS011;29281;50.356;30.894;2022-08-30T02:45:03;15.21;;;11.94;;
43680;SDS011;29281;50.356;30.894;2022-08-30T02:46:10;15.14;;;11.51;;
43680;SDS011;29281;50.356;30.894;2022-08-30T02:47:16;15.50;;;11.84;;
43680;SDS011;29281;50.356;30.894;2022-08-30T02:48:29;18.09;;;11.81;;
43680;SDS011;29281;50.356;30.894;2022-08-30T02:49:35;14.33;;;10.91;;
43680;SDS011;29281;50.356;30.894;2022-08-30T02:50:39;14.75;;;10.99;;
43680;SDS011;29281;50.356;30.894;2022-08-30T02:51:45;13.81;;;11.29;;
43680;SDS011;29281;50.356;30.894;2022-08-30T02:52:50;14.68;;;11.52;;
43680;SDS011;29281;50.356;30.894;2022-08-30T02:53:55;13.65;;;11.51;;
43680;SDS011;29281;50.356;30.894;2022-08-30T02:55:00;13.43;;;11.05;;
43680;SDS011;29281;50.356;30.894;2022-08-30T02:56:04;16.86;;;11.03;;
43680;SDS011;29281;50.356;30.894;2022-08-30T02:57:10;17.26;;;11.34;;
43680;SDS011;29281;50.356;30.894;2022-08-30T02:58:17;12.64;;;10.73;;
43680;SDS011;29281;50.356;30.894;2022-08-30T02:59:22;15.54;;;11.78;;
43680;SDS011;29281;50.356;30.894;2022-08-30T03:00:26;13.93;;;10.83;;
43680;SDS011;29281;50.356;30.894;2022-08-30T03:01:34;14.86;;;11.03;;
43680;SDS011;29281;50.356;30.894;2022-08-30T03:02:39;17.28;;;11.00;;
43680;SDS011;29281;50.356;30.894;2022-08-30T03:03:44;13.78;;;11.09;;
43680;SDS011;29281;50.356;30.894;2022-08-30T03:04:51;14.35;;;11.34;;
43680;SDS011;29281;50.356;30.894;2022-08-30T03:05:55;14.09;;;11.21;;
43680;SDS011;29281;50.356;30.894;2022-08-30T03:06:58;14.64;;;10.71;;
43680;SDS011;29281;50.356;30.894;2022-08-30T03:08:06;13.97;;;11.06;;
43680;SDS011;29281;50.356;30.894;2022-08-30T03:09:13;14.72;;;11.66;;
43680;SDS011;29281;50.356;30.894;2022-08-30T03:10:18;13.19;;;10.80;;
43680;SDS011;29281;50.356;30.894;2022-08-30T03:11:22;14.35;;;11.71;;
43680;SDS011;29281;50.356;30.894;2022-08-30T03:12:26;15.10;;;11.47;;
43680;SDS011;29281;50.356;30.894;2022-08-30T03:13:30;14.41;;;11.59;;
43680;SDS011;29281;50.356;30.894;2022-08-30T03:14:36;14.44;;;11.31;;
43680;SDS011;29281;50.356;30.894;2022-08-30T03:15:53;12.53;;;10.75;;
43680;SDS011;29281;50.356;30.894;2022-08-30T03:16:56;14.23;;;11.43;;
43680;SDS011;29281;50.356;30.894;2022-08-30T03:18:02;14.27;;;10.92;;
43680;SDS011;29281;50.356;30.894;2022-08-30T03:19:06;14.41;;;11.05;;
43680;SDS011;29281;50.356;30.894;2022-08-30T03:20:11;13.91;;;11.10;;
43680;SDS011;29281;50.356;30.894;2022-08-30T03:21:16;13.85;;;11.59;;
43680;SDS011;29281;50.356;30.894;2022-08-30T03:22:20;15.09;;;11.71;;
43680;SDS011;29281;50.356;30.894;2022-08-30T03:23:25;17.84;;;11.99;;
43680;SDS011;29281;50.356;30.894;2022-08-30T03:24:31;12.98;;;11.22;;
43680;SDS011;29281;50.356;30.894;2022-08-30T03:25:34;12.09;;;10.60;;
43680;SDS011;29281;50.356;30.894;2022-08-30T03:26:37;14.71;;;11.24;;
43680;SDS011;29281;50.356;30.894;2022-08-30T03:27:42;14.04;;;10.98;;
43680;SDS011;29281;50.356;30.894;2022-08-30T03:28:46;14.37;;;11.86;;
43680;SDS011;29281;50.356;30.894;2022-08-30T03:29:49;15.41;;;11.98;;
43680;SDS011;29281;50.356;30.894;2022-08-30T03:30:54;13.21;;;11.34;;
43680;SDS011;29281;50.356;30.894;2022-08-30T03:32:01;14.46;;;11.44;;
43680;SDS011;29281;50.356;30.894;2022-08-30T03:33:08;14.31;;;11.96;;
43680;SDS011;29281;50.356;30.894;2022-08-30T03:34:13;13.98;;;11.50;;
43680;SDS011;29281;50.356;30.894;2022-08-30T03:35:19;15.42;;;11.21;;
43680;SDS011;29281;50.356;30.894;2022-08-30T03:36:29;13.68;;;10.90;;
43680;SDS011;29281;50.356;30.894;2022-08-30T03:37:33;16.87;;;11.37;;
43680;SDS011;29281;50.356;30.894;2022-08-30T03:38:37;17.23;;;12.10;;
43680;SDS011;29281;50.356;30.894;2022-08-30T03:39:41;16.89;;;11.61;;
43680;SDS011;29281;50.356;30.894;2022-08-30T03:40:47;16.84;;;11.74;;
43680;SDS011;29281;50.356;30.894;2022-08-30T03:41:54;13.46;;;11.10;;
43680;SDS011;29281;50.356;30.894;2022-08-30T03:43:00;14.59;;;11.89;;
43680;SDS011;29281;50.356;30.894;2022-08-30T03:44:04;14.75;;;11.32;;
43680;SDS011;29281;50.356;30.894;2022-08-30T03:45:08;13.39;;;11.60;;
43680;SDS011;29281;50.356;30.894;2022-08-30T03:46:14;15.20;;;11.57;;
43680;SDS011;29281;50.356;30.894;2022-08-30T03:47:23;15.51;;;11.29;;
43680;SDS011;29281;50.356;30.894;2022-08-30T03:48:28;13.12;;;11.30;;
43680;SDS011;29281;50.356;30.894;2022-08-30T03:49:38;13.93;;;11.23;;
43680;SDS011;29281;50.356;30.894;2022-08-30T03:50:42;13.55;;;10.84;;
43680;SDS011;29281;50.356;30.894;2022-08-30T03:51:46;12.97;;;10.76;;
43680;SDS011;29281;50.356;30.894;2022-08-30T03:53:00;15.66;;;11.71;;
43680;SDS011;29281;50.356;30.894;2022-08-30T03:54:04;14.28;;;11.22;;
43680;SDS011;29281;50.356;30.894;2022-08-30T03:55:08;14.73;;;11.86;;
43680;SDS011;29281;50.356;30.894;2022-08-30T03:56:13;14.09;;;10.85;;
43680;SDS011;29281;50.356;30.894;2022-08-30T03:57:17;13.68;;;11.73;;
43680;SDS011;29281;50.356;30.894;2022-08-30T03:58:22;14.41;;;11.60;;
43680;SDS011;29281;50.356;30.894;2022-08-30T03:59:27;14.52;;;11.47;;
43680;SDS011;29281;50.356;30.894;2022-08-30T04:00:34;15.46;;;11.51;;
43680;SDS011;29281;50.356;30.894;2022-08-30T04:01:38;13.88;;;11.26;;
43680;SDS011;29281;50.356;30.894;2022-08-30T04:02:44;14.69;;;11.54;;
43680;SDS011;29281;50.356;30.894;2022-08-30T04:03:50;14.38;;;11.87;;
43680;SDS011;29281;50.356;30.894;2022-08-30T04:04:55;15.42;;;11.96;;
43680;SDS011;29281;50.356;30.894;2022-08-30T04:05:59;15.31;;;11.25;;
43680;SDS011;29281;50.356;30.894;2022-08-30T04:07:02;15.46;;;12.13;;
43680;SDS011;29281;50.356;30.894;2022-08-30T04:08:06;14.81;;;11.57;;
43680;SDS011;29281;50.356;30.894;2022-08-30T04:09:15;14.25;;;11.78;;
43680;SDS011;29281;50.356;30.894;2022-08-30T04:10:20;15.52;;;12.17;;
43680;SDS011;29281;50.356;30.894;2022-08-30T04:11:24;15.36;;;11.98;;
43680;SDS011;29281;50.356;30.894;2022-08-30T04:12:27;14.27;;;11.81;;
43680;SDS011;29281;50.356;30.894;2022-08-30T04:13:36;16.77;;;12.47;;
43680;SDS011;29281;50.356;30.894;2022-08-30T04:14:40;15.29;;;12.25;;
43680;SDS011;29281;50.356;30.894;2022-08-30T04:15:46;13.48;;;11.88;;
43680;SDS011;29281;50.356;30.894;2022-08-30T04:16:53;16.27;;;11.54;;
43680;SDS011;29281;50.356;30.894;2022-08-30T04:17:57;13.69;;;11.93;;
43680;SDS011;29281;50.356;30.894;2022-08-30T04:19:01;15.46;;;12.22;;
43680;SDS011;29281;50.356;30.894;2022-08-30T04:20:05;14.60;;;11.77;;
43680;SDS011;29281;50.356;30.894;2022-08-30T04:21:10;14.62;;;11.79;;
43680;SDS011;29281;50.356;30.894;2022-08-30T04:22:18;18.56;;;12.57;;
43680;SDS011;29281;50.356;30.894;2022-08-30T04:23:21;14.39;;;11.66;;
43680;SDS011;29281;50.356;30.894;2022-08-30T04:24:27;14.84;;;12.18;;
43680;SDS011;29281;50.356;30.894;2022-08-30T04:25:39;15.45;;;12.02;;
43680;SDS011;29281;50.356;30.894;2022-08-30T04:26:48;14.36;;;12.06;;
43680;SDS011;29281;50.356;30.894;2022-08-30T04:27:51;17.65;;;12.29;;
43680;SDS011;29281;50.356;30.894;2022-08-30T04:28:56;14.89;;;12.62;;
43680;SDS011;29281;50.356;30.894;2022-08-30T04:30:02;15.08;;;12.64;;
43680;SDS011;29281;50.356;30.894;2022-08-30T04:31:16;15.09;;;11.86;;
43680;SDS011;29281;50.356;30.894;2022-08-30T04:32:22;14.21;;;12.06;;
43680;SDS011;29281;50.356;30.894;2022-08-30T04:33:27;15.88;;;12.25;;
43680;SDS011;29281;50.356;30.894;2022-08-30T04:34:31;16.68;;;12.69;;
43680;SDS011;29281;50.356;30.894;2022-08-30T04:35:34;15.22;;;12.22;;
43680;SDS011;29281;50.356;30.894;2022-08-30T04:36:40;17.14;;;13.25;;
43680;SDS011;29281;50.356;30.894;2022-08-30T04:37:46;17.41;;;12.88;;
43680;SDS011;29281;50.356;30.894;2022-08-30T04:38:49;15.92;;;12.89;;
43680;SDS011;29281;50.356;30.894;2022-08-30T04:39:55;16.48;;;13.27;;
43680;SDS011;29281;50.356;30.894;2022-08-30T04:41:09;16.32;;;12.54;;
43680;SDS011;29281;50.356;30.894;2022-08-30T04:42:19;15.61;;;12.96;;
43680;SDS011;29281;50.356;30.894;2022-08-30T04:43:22;16.94;;;12.91;;
43680;SDS011;29281;50.356;30.894;2022-08-30T04:44:30;17.66;;;12.53;;
43680;SDS011;29281;50.356;30.894;2022-08-30T04:45:36;14.92;;;12.71;;
43680;SDS011;29281;50.356;30.894;2022-08-30T04:46:43;14.46;;;12.96;;
43680;SDS011;29281;50.356;30.894;2022-08-30T04:47:50;16.31;;;13.04;;
43680;SDS011;29281;50.356;30.894;2022-08-30T04:48:53;16.20;;;13.09;;
43680;SDS011;29281;50.356;30.894;2022-08-30T04:49:58;16.46;;;13.87;;
43680;SDS011;29281;50.356;30.894;2022-08-30T04:51:12;16.92;;;13.31;;
43680;SDS011;29281;50.356;30.894;2022-08-30T04:52:23;19.35;;;13.29;;
43680;SDS011;29281;50.356;30.894;2022-08-30T04:53:27;15.04;;;13.31;;
43680;SDS011;29281;50.356;30.894;2022-08-30T04:54:30;17.11;;;13.67;;
43680;SDS011;29281;50.356;30.894;2022-08-30T04:55:36;18.78;;;14.41;;
43680;SDS011;29281;50.356;30.894;2022-08-30T04:56:42;16.37;;;13.66;;
43680;SDS011;29281;50.356;30.894;2022-08-30T04:57:46;17.84;;;13.76;;
43680;SDS011;29281;50.356;30.894;2022-08-30T04:58:50;16.92;;;13.76;;
43680;SDS011;29281;50.356;30.894;2022-08-30T04:59:57;17.09;;;13.25;;
43680;SDS011;29281;50.356;30.894;2022-08-30T05:01:01;15.30;;;13.67;;
43680;SDS011;29281;50.356;30.894;2022-08-30T05:02:06;16.94;;;13.91;;
43680;SDS011;29281;50.356;30.894;2022-08-30T05:03:14;17.08;;;13.88;;
43680;SDS011;29281;50.356;30.894;2022-08-30T05:04:19;18.11;;;14.26;;
43680;SDS011;29281;50.356;30.894;2022-08-30T05:05:22;16.96;;;14.87;;
43680;SDS011;29281;50.356;30.894;2022-08-30T05:07:48;16.53;;;13.66;;
43680;SDS011;29281;50.356;30.894;2022-08-30T05:08:52;17.95;;;14.23;;
43680;SDS011;29281;50.356;30.894;2022-08-30T05:10:01;16.96;;;14.65;;
43680;SDS011;29281;50.356;30.894;2022-08-30T05:11:11;16.18;;;14.51;;
43680;SDS011;29281;50.356;30.894;2022-08-30T05:12:18;16.92;;;14.48;;
43680;SDS011;29281;50.356;30.894;2022-08-30T05:13:22;18.18;;;14.59;;
43680;SDS011;29281;50.356;30.894;2022-08-30T05:14:28;16.84;;;14.79;;
43680;SDS011;29281;50.356;30.894;2022-08-30T05:15:32;17.68;;;14.46;;
43680;SDS011;29281;50.356;30.894;2022-08-30T05:16:38;19.09;;;14.98;;
43680;SDS011;29281;50.356;30.894;2022-08-30T05:17:43;18.58;;;16.18;;
43680;SDS011;29281;50.356;30.894;2022-08-30T05:18:47;18.52;;;15.31;;
43680;SDS011;29281;50.356;30.894;2022-08-30T05:19:51;19.71;;;15.34;;
43680;SDS011;29281;50.356;30.894;2022-08-30T05:21:07;17.56;;;15.21;;
43680;SDS011;29281;50.356;30.894;2022-08-30T05:22:19;19.14;;;14.93;;
43680;SDS011;29281;50.356;30.894;2022-08-30T05:23:26;16.55;;;14.63;;
43680;SDS011;29281;50.356;30.894;2022-08-30T05:24:31;16.87;;;14.95;;
43680;SDS011;29281;50.356;30.894;2022-08-30T05:25:36;18.69;;;15.49;;
43680;SDS011;29281;50.356;30.894;2022-08-30T05:26:42;17.84;;;14.59;;
43680;SDS011;29281;50.356;30.894;2022-08-30T05:27:46;18.08;;;14.31;;
43680;SDS011;29281;50.356;30.894;2022-08-30T05:28:49;20.80;;;14.95;;
43680;SDS011;29281;50.356;30.894;2022-08-30T05:29:54;16.33;;;14.31;;
43680;SDS011;29281;50.356;30.894;2022-08-30T05:30:58;17.14;;;14.15;;
43680;SDS011;29281;50.356;30.894;2022-08-30T05:32:03;14.88;;;12.32;;
43680;SDS011;29281;50.356;30.894;2022-08-30T05:33:10;16.88;;;13.54;;
43680;SDS011;29281;50.356;30.894;2022-08-30T05:34:17;16.99;;;13.62;;
43680;SDS011;29281;50.356;30.894;2022-08-30T05:35:23;17.37;;;14.23;;
43680;SDS011;29281;50.356;30.894;2022-08-30T05:36:28;16.81;;;13.52;;
43680;SDS011;29281;50.356;30.894;2022-08-30T05:37:33;15.65;;;12.59;;
43680;SDS011;29281;50.356;30.894;2022-08-30T05:38:38;20.42;;;14.45;;
43680;SDS011;29281;50.356;30.894;2022-08-30T05:39:43;16.19;;;14.03;;
43680;SDS011;29281;50.356;30.894;2022-08-30T05:40:49;17.65;;;14.17;;
43680;SDS011;29281;50.356;30.894;2022-08-30T05:41:57;17.84;;;14.08;;
43680;SDS011;29281;50.356;30.894;2022-08-30T05:43:04;16.18;;;13.26;;
43680;SDS011;29281;50.356;30.894;2022-08-30T05:44:10;15.91;;;12.77;;
43680;SDS011;29281;50.356;30.894;2022-08-30T05:45:14;14.79;;;12.75;;
43680;SDS011;29281;50.356;30.894;2022-08-30T05:46:18;16.42;;;12.91;;
43680;SDS011;29281;50.356;30.894;2022-08-30T05:47:23;17.56;;;13.18;;
43680;SDS011;29281;50.356;30.894;2022-08-30T05:48:27;16.67;;;12.51;;
43680;SDS011;29281;50.356;30.894;2022-08-30T05:49:32;14.59;;;11.41;;
43680;SDS011;29281;50.356;30.894;2022-08-30T05:50:37;14.67;;;12.03;;
43680;SDS011;29281;50.356;30.894;2022-08-30T05:51:42;14.35;;;11.05;;
43680;SDS011;29281;50.356;30.894;2022-08-30T05:52:47;14.07;;;11.68;;
43680;SDS011;29281;50.356;30.894;2022-08-30T05:53:54;15.80;;;11.61;;
43680;SDS011;29281;50.356;30.894;2022-08-30T05:55:01;14.08;;;12.04;;
43680;SDS011;29281;50.356;30.894;2022-08-30T05:56:08;14.02;;;11.26;;
43680;SDS011;29281;50.356;30.894;2022-08-30T05:57:22;14.11;;;11.87;;
43680;SDS011;29281;50.356;30.894;2022-08-30T05:58:26;14.88;;;11.96;;
43680;SDS011;29281;50.356;30.894;2022-08-30T05:59:29;15.53;;;11.57;;
43680;SDS011;29281;50.356;30.894;2022-08-30T06:00:34;14.79;;;10.99;;
43680;SDS011;29281;50.356;30.894;2022-08-30T06:01:42;13.32;;;11.31;;
43680;SDS011;29281;50.356;30.894;2022-08-30T06:02:52;12.79;;;10.71;;
43680;SDS011;29281;50.356;30.894;2022-08-30T06:03:57;13.47;;;10.54;;
43680;SDS011;29281;50.356;30.894;2022-08-30T06:05:06;16.08;;;11.62;;
43680;SDS011;29281;50.356;30.894;2022-08-30T06:06:14;14.21;;;11.49;;
43680;SDS011;29281;50.356;30.894;2022-08-30T06:07:19;14.53;;;11.18;;
43680;SDS011;29281;50.356;30.894;2022-08-30T06:08:24;13.43;;;11.60;;
43680;SDS011;29281;50.356;30.894;2022-08-30T06:09:30;15.31;;;12.58;;
43680;SDS011;29281;50.356;30.894;2022-08-30T06:10:34;16.11;;;12.78;;
43680;SDS011;29281;50.356;30.894;2022-08-30T06:11:38;13.89;;;12.42;;
43680;SDS011;29281;50.356;30.894;2022-08-30T06:12:53;14.62;;;11.76;;
43680;SDS011;29281;50.356;30.894;2022-08-30T06:13:56;13.08;;;11.35;;
43680;SDS011;29281;50.356;30.894;2022-08-30T06:15:02;14.54;;;11.89;;
43680;SDS011;29281;50.356;30.894;2022-08-30T06:16:14;14.59;;;12.05;;
43680;SDS011;29281;50.356;30.894;2022-08-30T06:17:14;14.01;;;11.88;;
43680;SDS011;29281;50.356;30.894;2022-08-30T06:18:18;15.18;;;12.71;;
43680;SDS011;29281;50.356;30.894;2022-08-30T06:19:30;14.07;;;11.97;;
43680;SDS011;29281;50.356;30.894;2022-08-30T06:20:38;13.90;;;11.20;;
43680;SDS011;29281;50.356;30.894;2022-08-30T06:21:48;12.57;;;11.04;;
43680;SDS011;29281;50.356;30.894;2022-08-30T06:22:52;13.71;;;10.58;;